createdAt,value
2022-08-19T00:02:20.870Z,99536.13
2022-08-19T00:05:23.826Z,99526.72
2022-08-19T00:08:26.761Z,99532.34
2022-08-19T00:11:29.602Z,99525.09
2022-08-19T00:14:32.682Z,99516.56
2022-08-19T00:17:35.696Z,99509.19
2022-08-19T00:20:45.182Z,99503.94
2022-08-19T00:23:48.356Z,99507.09
2022-08-19T00:26:51.409Z,99508.84
2022-08-19T00:29:54.360Z,99508.16
2022-08-19T00:32:57.484Z,99503.19
2022-08-19T00:36:01.512Z,99509.22
2022-08-19T00:39:04.680Z,99512.97
2022-08-19T00:42:07.554Z,99507.94
2022-08-19T00:45:13.735Z,99496.16
2022-08-19T00:48:17.898Z,99507.59
2022-08-19T00:51:20.478Z,99512.44
2022-08-19T00:54:28.223Z,99513.41
2022-08-19T00:57:36.746Z,99516.25
2022-08-19T01:00:39.695Z,99511.91
2022-08-19T01:03:55.188Z,99504.75
2022-08-19T01:07:02.515Z,99514.19
2022-08-19T01:10:07.150Z,99508.59
2022-08-19T01:13:10.522Z,99499.25
2022-08-19T01:16:13.410Z,99505.37
2022-08-19T01:19:29.178Z,99506.03
2022-08-19T01:22:33.997Z,99498.31
2022-08-19T01:25:43.459Z,99490.53
2022-08-19T01:28:51.897Z,99492.50
2022-08-19T01:31:55.203Z,99491.94
2022-08-19T01:34:57.690Z,99485.81
2022-08-19T01:38:09.327Z,99484.81
2022-08-19T01:41:13.434Z,99484.59
2022-08-19T01:44:18.829Z,99484.13
2022-08-19T01:47:21.785Z,99485.53
2022-08-19T01:50:24.961Z,99488.16
2022-08-19T01:53:33.610Z,99496.41
2022-08-19T01:56:36.690Z,99493.38
2022-08-19T01:59:40.763Z,99491.28
2022-08-19T02:02:44.204Z,99487.78
2022-08-19T02:05:47.201Z,99499.53
2022-08-19T02:08:50.219Z,99497.13
2022-08-19T02:11:54.618Z,99519.06
2022-08-19T02:14:57.202Z,99512.69
2022-08-19T02:18:00.313Z,99522.34
2022-08-19T02:21:02.843Z,99527.06
2022-08-19T02:24:05.872Z,99533.78
2022-08-19T02:27:08.391Z,99523.22
2022-08-19T02:30:17.104Z,99529.37
2022-08-19T02:33:19.705Z,99513.84
2022-08-19T02:36:23.119Z,99508.91
2022-08-19T02:39:25.639Z,99511.00
2022-08-19T02:42:28.674Z,99503.22
2022-08-19T02:45:35.604Z,99511.44
2022-08-19T02:48:43.348Z,99502.78
2022-08-19T02:51:47.217Z,99529.97
2022-08-19T02:54:50.695Z,99533.66
2022-08-19T02:57:53.214Z,99537.38
2022-08-19T03:00:57.062Z,99530.59
2022-08-19T03:04:01.793Z,99521.59
2022-08-19T03:07:10.738Z,99523.13
2022-08-19T03:10:14.376Z,99528.44
2022-08-19T03:13:18.890Z,99524.16
2022-08-19T03:16:24.432Z,99525.16
2022-08-19T03:19:28.563Z,99527.78
2022-08-19T03:22:31.116Z,99531.50
2022-08-19T03:25:39.171Z,99531.09
2022-08-19T03:28:42.971Z,99526.59
2022-08-19T03:31:53.720Z,99530.88
2022-08-19T03:34:56.355Z,99530.34
2022-08-19T03:38:01.938Z,99529.47
2022-08-19T03:41:07.416Z,99536.59
2022-08-19T03:44:16.611Z,99533.31
2022-08-19T03:47:21.246Z,99549.66
2022-08-19T03:50:25.407Z,99555.25
2022-08-19T03:53:29.213Z,99549.97
2022-08-19T03:56:32.500Z,99550.75
2022-08-19T03:59:36.762Z,99543.28
2022-08-19T04:02:39.602Z,99545.25
2022-08-19T04:05:42.540Z,99547.03
2022-08-19T04:08:46.881Z,99547.78
2022-08-19T04:11:54.727Z,99549.53
2022-08-19T04:14:57.298Z,99555.28
2022-08-19T04:18:00.065Z,99558.03
2022-08-19T04:21:02.560Z,99561.31
2022-08-19T04:24:05.608Z,99571.63
2022-08-19T04:27:08.184Z,99559.25
2022-08-19T04:30:11.528Z,99559.25
2022-08-19T04:33:16.595Z,99554.75
2022-08-19T04:36:30.225Z,99558.03
2022-08-19T04:40:11.482Z,99564.06
2022-08-19T04:43:15.734Z,99568.78
2022-08-19T04:46:39.283Z,99568.00
2022-08-19T04:49:41.197Z,99561.19
2022-08-19T04:52:43.745Z,99576.44
2022-08-19T04:55:46.613Z,99576.69
2022-08-19T04:58:51.635Z,99566.19
2022-08-19T05:01:54.462Z,99557.88
2022-08-19T05:05:01.494Z,99572.19
2022-08-19T05:08:04.868Z,99575.91
2022-08-19T05:11:29.336Z,99580.66
2022-08-19T05:14:32.274Z,99581.22
2022-08-19T05:17:38.757Z,99584.03
2022-08-19T05:21:00.984Z,99576.63
2022-08-19T05:24:08.783Z,99585.53
2022-08-19T05:27:11.648Z,99575.28
2022-08-19T05:30:14.499Z,99575.59
2022-08-19T05:33:18.194Z,99573.56
2022-08-19T05:36:21.074Z,99572.84
2022-08-19T05:39:26.511Z,99568.72
2022-08-19T05:42:29.124Z,99571.56
2022-08-19T05:45:32.099Z,99572.28
2022-08-19T05:48:36.073Z,99571.66
2022-08-19T05:51:39.044Z,99580.53
2022-08-19T05:54:43.613Z,99580.84
2022-08-19T05:57:46.527Z,99594.44
2022-08-19T06:00:49.084Z,99604.28
2022-08-19T06:03:52.145Z,99600.00
2022-08-19T06:06:55.126Z,99621.31
2022-08-19T06:10:00.134Z,99630.84
2022-08-19T06:13:03.976Z,99641.19
2022-08-19T06:16:06.944Z,99644.38
2022-08-19T06:19:12.921Z,99634.59
2022-08-19T06:22:15.748Z,99641.81
2022-08-19T06:25:18.660Z,99645.97
2022-08-19T06:28:22.381Z,99661.72
2022-08-19T06:31:28.372Z,99658.03
2022-08-19T06:34:33.979Z,99658.19
2022-08-19T06:37:39.773Z,99667.28
2022-08-19T06:43:54.141Z,99682.31
2022-08-19T06:46:59.259Z,99685.62
2022-08-19T06:50:05.429Z,99685.66
2022-08-19T06:53:08.550Z,99681.28
2022-08-19T06:56:11.085Z,99672.87
2022-08-19T06:59:18.809Z,99681.34
2022-08-19T07:02:21.935Z,99689.44
2022-08-19T07:05:25.073Z,99696.09
2022-08-19T07:08:29.311Z,99694.56
2022-08-19T07:11:34.161Z,99693.41
2022-08-19T07:14:38.592Z,99693.41
2022-08-19T07:17:42.238Z,99711.41
2022-08-19T07:20:44.909Z,99712.00
2022-08-19T07:23:48.979Z,99707.47
2022-08-19T07:26:53.194Z,99696.31
2022-08-19T07:29:57.609Z,99698.03
2022-08-19T07:33:03.640Z,99701.91
2022-08-19T07:36:08.932Z,99695.03
2022-08-19T07:39:15.294Z,99682.31
2022-08-19T07:42:19.098Z,99688.16
2022-08-19T07:45:21.646Z,99691.78
2022-08-19T07:48:26.396Z,99686.06
2022-08-19T07:51:36.349Z,99672.97
2022-08-19T07:54:40.255Z,99663.81
2022-08-19T08:00:51.876Z,99657.75
2022-08-19T08:04:16.799Z,99654.47
2022-08-19T08:07:38.658Z,99639.59
2022-08-19T08:10:42.082Z,99636.34
2022-08-19T08:13:44.950Z,99625.63
2022-08-19T08:16:47.835Z,99622.34
2022-08-19T08:19:51.910Z,99622.25
2022-08-19T08:23:13.208Z,99616.38
2022-08-19T08:26:17.029Z,99619.06
2022-08-19T08:29:22.203Z,99616.66
2022-08-19T08:32:28.602Z,99619.53
2022-08-19T08:35:31.431Z,99623.75
2022-08-19T08:38:39.674Z,99620.09
2022-08-19T08:41:58.699Z,99618.72
2022-08-19T08:45:06.028Z,99630.63
2022-08-19T08:48:24.245Z,99642.22
2022-08-19T08:51:34.848Z,99641.19
2022-08-19T08:54:48.912Z,99641.06
2022-08-19T08:58:07.144Z,99638.34
2022-08-19T09:01:13.583Z,99627.37
2022-08-19T09:04:16.610Z,99628.53
2022-08-19T09:08:19.834Z,99623.66
2022-08-19T09:11:49.724Z,99625.69
2022-08-19T09:15:14.797Z,99614.84
2022-08-19T09:18:19.293Z,99623.47
2022-08-19T09:21:30.237Z,99633.31
2022-08-19T09:24:33.159Z,99623.06
2022-08-19T09:27:43.132Z,99622.31
2022-08-19T09:30:56.589Z,99619.59
2022-08-19T09:34:00.394Z,99607.13
2022-08-19T09:37:04.138Z,99610.69
2022-08-19T09:40:08.096Z,99615.28
2022-08-19T09:43:13.331Z,99612.97
2022-08-19T09:46:19.070Z,99607.88
2022-08-19T09:49:24.997Z,99604.66
2022-08-19T09:52:32.843Z,99592.72
2022-08-19T09:55:35.500Z,99592.09
2022-08-19T09:58:39.171Z,99594.94
2022-08-19T10:01:41.762Z,99590.22
2022-08-19T10:05:07.051Z,99586.16
2022-08-19T10:08:13.324Z,99584.91
2022-08-19T10:11:28.710Z,99594.50
2022-08-19T10:14:40.563Z,99594.09
2022-08-19T10:17:48.209Z,99601.22
2022-08-19T10:21:19.281Z,99606.66
2022-08-19T10:24:25.261Z,99601.22
2022-08-19T10:27:28.063Z,99612.50
2022-08-19T10:30:36.997Z,99607.72
2022-08-19T10:33:53.475Z,99611.38
2022-08-19T10:37:00.595Z,99618.22
2022-08-19T10:40:07.004Z,99620.66
2022-08-19T10:43:09.894Z,99626.53
2022-08-19T10:46:16.553Z,99622.88
2022-08-19T10:49:25.159Z,99619.09
2022-08-19T10:52:38.824Z,99613.56
2022-08-19T10:56:00.847Z,99617.31
2022-08-19T10:59:04.364Z,99617.72
2022-08-19T11:02:13.977Z,99619.78
2022-08-19T11:05:16.766Z,99623.72
2022-08-19T11:08:23.447Z,99616.03
2022-08-19T11:11:27.389Z,99615.78
2022-08-19T11:14:32.189Z,99611.59
2022-08-19T11:17:37.045Z,99616.09
2022-08-19T11:20:40.446Z,99616.25
2022-08-19T11:23:43.035Z,99619.16
2022-08-19T11:26:46.012Z,99619.50
2022-08-19T11:29:48.583Z,99618.44
2022-08-19T11:32:51.408Z,99615.47
2022-08-19T11:35:55.204Z,99614.72
2022-08-19T11:38:58.108Z,99621.09
2022-08-19T11:42:02.308Z,99616.19
2022-08-19T11:45:05.274Z,99618.03
2022-08-19T11:48:07.859Z,99615.16
2022-08-19T11:51:13.258Z,99609.28
2022-08-19T11:54:17.398Z,99601.31
2022-08-19T11:57:20.795Z,99601.38
2022-08-19T12:00:23.602Z,99600.97
2022-08-19T12:03:26.871Z,99621.38
2022-08-19T12:06:33.523Z,99674.91
2022-08-19T12:09:36.378Z,99697.69
2022-08-19T12:12:45.898Z,99715.00
2022-08-19T12:15:57.234Z,99715.19
2022-08-19T12:19:04.607Z,99710.63
2022-08-19T12:22:08.656Z,99685.69
2022-08-19T12:25:12.264Z,99693.63
2022-08-19T12:28:15.078Z,99692.59
2022-08-19T12:31:18.287Z,99700.78
2022-08-19T12:34:21.537Z,99710.81
2022-08-19T12:37:24.117Z,99710.72
2022-08-19T12:40:27.554Z,99719.84
2022-08-19T12:43:31.433Z,99710.06
2022-08-19T12:46:34.329Z,99709.88
2022-08-19T12:49:52.544Z,99714.22
2022-08-19T12:52:59.112Z,99708.91
2022-08-19T12:56:01.694Z,99729.91
2022-08-19T12:59:05.817Z,99737.38
2022-08-19T13:02:08.811Z,99755.75
2022-08-19T13:05:14.261Z,99751.59
2022-08-19T13:08:18.056Z,99740.34
2022-08-19T13:11:22.065Z,99732.09
2022-08-19T13:14:24.677Z,99744.41
2022-08-19T13:17:29.939Z,99748.34
2022-08-19T13:20:32.444Z,99724.06
2022-08-19T13:23:36.829Z,99720.69
2022-08-19T13:26:39.414Z,99722.31
2022-08-19T13:30:01.596Z,99729.09
2022-08-19T13:33:16.050Z,99728.84
2022-08-19T13:36:19.271Z,99735.47
2022-08-19T13:39:24.015Z,99744.63
2022-08-19T13:42:26.905Z,99751.13
2022-08-19T13:45:31.002Z,99749.87
2022-08-19T13:48:33.920Z,99739.47
2022-08-19T13:51:38.373Z,99741.34
2022-08-19T13:54:43.387Z,99747.38
2022-08-19T13:57:46.635Z,99737.47
2022-08-19T14:12:56.865Z,99578.12
2022-08-19T14:15:59.963Z,99580.41
2022-08-19T14:19:03.008Z,99577.66
2022-08-19T14:22:06.561Z,99583.41
2022-08-19T14:25:11.909Z,99572.41
2022-08-19T14:28:14.892Z,99577.25
2022-08-19T14:31:20.145Z,99590.91
2022-08-19T14:34:23.239Z,99603.09
2022-08-19T14:53:11.911Z,99602.28
2022-08-19T14:56:21.434Z,99602.28
2022-08-19T14:59:24.565Z,99600.44
2022-08-19T15:02:34.773Z,99600.97
2022-08-19T15:05:37.838Z,99597.47
2022-08-19T15:08:44.122Z,99600.13
2022-08-19T15:11:46.694Z,99598.50
2022-08-19T15:14:55.811Z,99605.19
2022-08-19T15:18:03.450Z,99595.16
2022-08-19T15:21:06.388Z,99587.16
2022-08-19T15:24:10.328Z,99588.16
2022-08-19T15:27:13.891Z,99592.22
2022-08-19T15:30:22.403Z,99589.31
2022-08-19T15:33:26.040Z,99591.13
2022-08-19T15:36:28.597Z,99592.13
2022-08-19T15:39:32.250Z,99608.38
2022-08-19T15:42:37.422Z,99609.84
2022-08-19T15:45:45.222Z,99620.75
2022-08-19T16:16:47.342Z,99645.97
2022-08-19T16:19:52.666Z,99629.81
2022-08-19T16:22:58.514Z,99626.34
2022-08-19T16:26:02.011Z,99624.47
2022-08-19T16:29:09.047Z,99610.84
2022-08-19T16:32:16.117Z,99611.03
2022-08-19T16:35:18.689Z,99601.88
2022-08-19T16:38:22.808Z,99618.19
2022-08-19T16:41:25.439Z,99607.44
2022-08-19T16:44:29.758Z,99616.53
2022-08-19T16:47:32.467Z,99621.56
2022-08-19T16:50:48.838Z,99618.13
2022-08-19T16:53:53.280Z,99613.91
2022-08-19T16:56:56.186Z,99606.91
2022-08-19T16:59:58.865Z,99604.28
2022-08-19T17:03:14.612Z,99596.81
2022-08-19T17:06:22.221Z,99591.19
2022-08-19T17:09:26.030Z,99587.47
2022-08-19T17:12:31.595Z,99606.13
2022-08-19T17:15:35.177Z,99601.78
2022-08-19T17:18:37.703Z,99599.81
2022-08-19T17:21:40.895Z,99587.28
2022-08-19T17:24:43.392Z,99606.28
2022-08-19T17:27:46.192Z,99603.16
2022-08-19T17:30:48.926Z,99588.16
2022-08-19T17:33:52.657Z,99572.13
2022-08-19T17:36:57.701Z,99571.50
2022-08-19T17:40:02.777Z,99579.91
2022-08-19T17:43:07.453Z,99581.28
2022-08-19T17:46:12.946Z,99588.25
2022-08-19T17:49:20.755Z,99596.28
2022-08-19T17:52:23.962Z,99581.87
2022-08-19T17:55:26.990Z,99583.94
2022-08-19T17:58:29.812Z,99593.38
2022-08-19T18:01:52.760Z,99598.56
2022-08-19T18:04:55.955Z,99606.56
2022-08-19T18:08:00.026Z,99623.66
2022-08-19T18:11:03.803Z,99629.03
2022-08-19T18:14:06.386Z,99629.91
2022-08-19T18:17:14.290Z,99620.28
2022-08-19T18:20:17.888Z,99624.47
2022-08-19T18:23:43.827Z,99624.16
2022-08-19T18:26:45.400Z,99627.59
2022-08-19T18:29:48.218Z,99628.69
2022-08-19T18:32:53.005Z,99624.94
2022-08-19T18:35:55.784Z,99624.88
2022-08-19T18:39:17.279Z,99630.69
2022-08-19T18:42:39.999Z,99640.03
2022-08-19T18:46:02.154Z,99644.25
2022-08-19T18:49:05.553Z,99648.09
2022-08-19T18:52:08.119Z,99641.84
2022-08-19T18:55:11.730Z,99636.69
2022-08-19T18:58:15.104Z,99624.03
2022-08-19T19:01:22.208Z,99625.25
2022-08-19T19:04:34.203Z,99635.69
2022-08-19T19:07:36.963Z,99652.38
2022-08-19T19:10:41.176Z,99662.47
2022-08-19T19:13:47.053Z,99670.28
2022-08-19T19:16:49.608Z,99676.47
2022-08-19T19:19:52.979Z,99671.22
2022-08-19T19:22:56.049Z,99680.31
2022-08-19T19:26:01.719Z,99688.56
2022-08-19T19:29:04.926Z,99686.91
2022-08-19T19:32:10.825Z,99701.50
2022-08-19T19:35:13.513Z,99711.28
2022-08-19T19:38:16.345Z,99717.41
2022-08-19T19:41:24.229Z,99718.31
2022-08-19T19:44:30.742Z,99728.50
2022-08-19T19:47:35.107Z,99734.75
2022-08-19T19:50:37.914Z,99739.78
2022-08-19T19:53:41.227Z,99732.88
2022-08-19T19:56:45.047Z,99756.59
2022-08-19T19:59:51.732Z,99757.56
2022-08-19T20:02:56.010Z,99766.38
2022-08-19T20:05:59.458Z,99772.13
2022-08-19T20:09:08.228Z,99779.25
2022-08-19T20:12:11.039Z,99790.00
2022-08-19T20:15:14.903Z,99804.28
2022-08-19T20:18:17.739Z,99821.41
2022-08-19T20:21:20.454Z,99824.69
2022-08-19T20:24:32.621Z,99824.34
2022-08-19T20:27:40.131Z,99836.44
2022-08-19T20:30:46.342Z,99832.06
2022-08-19T20:33:49.903Z,99850.38
2022-08-19T20:36:52.863Z,99838.63
2022-08-19T20:39:55.401Z,99832.28
2022-08-19T20:42:58.266Z,99841.25
2022-08-19T20:46:03.427Z,99830.16
2022-08-19T20:49:06.291Z,99819.81
2022-08-19T20:52:08.800Z,99797.41
2022-08-19T20:55:12.748Z,99796.94
2022-08-19T20:58:16.908Z,99795.41
2022-08-19T21:01:19.822Z,99800.50
2022-08-19T21:04:22.634Z,99827.63
2022-08-19T21:07:25.501Z,99861.19
2022-08-19T21:10:42.506Z,99869.97
2022-08-19T21:13:45.366Z,99840.13
2022-08-19T21:16:47.934Z,99854.94
2022-08-19T21:19:50.755Z,99856.78
2022-08-19T21:22:53.293Z,99865.50
2022-08-19T21:25:58.288Z,99873.63
2022-08-19T21:29:00.951Z,99857.88
2022-08-19T21:32:04.447Z,99860.34
2022-08-19T21:35:07.126Z,99851.19
2022-08-19T21:38:10.133Z,99850.56
2022-08-19T21:41:12.786Z,99852.34
2022-08-19T21:44:15.610Z,99840.31
2022-08-19T21:47:18.169Z,99823.97
2022-08-19T21:50:22.451Z,99833.84
2022-08-19T21:53:31.538Z,99854.38
2022-08-19T21:56:40.107Z,99851.84
2022-08-19T21:59:43.724Z,99861.75
2022-08-19T22:02:46.828Z,99865.66
2022-08-19T22:05:50.879Z,99873.75
2022-08-19T22:08:56.211Z,99882.16
2022-08-19T22:11:59.143Z,99881.28
2022-08-19T22:15:02.122Z,99875.91
2022-08-19T22:18:06.103Z,99881.56
2022-08-19T22:21:11.948Z,99870.81
2022-08-19T22:24:15.143Z,99866.91
2022-08-19T22:27:17.903Z,99864.09
2022-08-19T22:30:23.348Z,99865.56
2022-08-19T22:33:27.781Z,99861.75
2022-08-19T22:36:31.769Z,99870.31
2022-08-19T22:39:35.826Z,99889.00
2022-08-19T22:42:39.224Z,99894.69
2022-08-19T22:45:42.598Z,99898.59
2022-08-19T22:48:46.679Z,99892.94
2022-08-19T22:52:07.865Z,99851.94
2022-08-19T22:55:10.682Z,99833.94
2022-08-19T22:58:13.196Z,99808.72
2022-08-19T23:01:27.589Z,99802.56
2022-08-19T23:04:32.964Z,99810.22
2022-08-19T23:07:36.912Z,99815.12
2022-08-19T23:10:39.741Z,99808.44
2022-08-19T23:13:42.646Z,99803.63
2022-08-19T23:16:50.818Z,99808.22
2022-08-19T23:19:54.613Z,99818.09
2022-08-19T23:22:57.945Z,99824.97
2022-08-19T23:26:00.692Z,99835.34
2022-08-19T23:29:23.235Z,99826.44
2022-08-19T23:32:26.123Z,99823.88
2022-08-19T23:35:33.586Z,99823.78
2022-08-19T23:38:36.464Z,99826.63
2022-08-19T23:41:39.126Z,99840.50
2022-08-19T23:44:51.876Z,99854.19
2022-08-19T23:47:55.918Z,99842.53
2022-08-19T23:51:10.269Z,99839.13
2022-08-19T23:54:12.930Z,99845.00
2022-08-19T23:57:15.861Z,99853.59
